Details From UAII - Shymkent
To UACC - Astana Intl
Flight Number -
Tags Generated
Created
Modified
Stats Distance 526 nm / 973 km
Max Altitude 0 ft / 0 m
Waypoints 3
Social Downloads 6
Likes 0
Share VATSIM

Download

Looking for another format? Having issues loading an existing format? Contact us
Advertisement - Login to hide

Notes

Generated

Route

UAII AST UACC

ID Type Via Altitude Latitude Longitude Leg Dist Tot Dist Heading (true) Name
O UAII APT - 0 ft / 0 m 42.36776˚ 69.46280˚ - 0 nm - -
AST VOR - 0 ft / 0 m 51.00111˚ 71.43417˚ 524 nm 524 nm 8° / 10° ASTANA VOR-DME
O UACC APT - 0 ft / 0 m 51.01097˚ 71.44957˚ 0 nm 525 nm 45° / 45° -

Altitude Profile

Advertisement - Login to hide

Weather


0- 5 10 15 20 25 30 35+ Temperature / ° C

Clouds and Precipitation
Forecast for 2018-05-22 00:00 UTC. Updated 6 hours ago

Ground ~20,000 ft ~40,000 ft Winds

UAII

Details ICAO UAII (CIT)
Name SHYMKENT
Region Kazakhstan and Kyrgyzstan
Timezone Asia/Almaty (UTC+6.0)
Stats Elevation 1,385 ft / 422 m (AMSL)
Location 42.364236° 69.479116°
Runways 1
Magnetic Variation 5.850° E

METAR

UAII 220430Z 23002MPS 160V290 CAVOK 27/08 Q1016 R10/0///70 NOSIG RMK QFE726/0969

Decode

TAF

TAF UAII 212300Z 2200/2224 23005MPS 6000 SCT050CB BKN100 TX29/2209Z TN15/2201Z TEMPO 2200/2203 12005MPS TEMPO 2203/2207 18007MPS TEMPO 2207/2218 19008G13MPS -TSRA BKN040CB TEMPO 2218/2224 18005G10MPS

Decode

Departure Runways

ID Width Length Bearing (true) Bearing (mag) Surface Threshold Offset Overrun Length
10 144 ft / 44 m 9,167 ft / 2,794 m 106.29° 100.44° Concrete 0 ft / 0 m 0 ft / 0 m
28 144 ft / 44 m 9,167 ft / 2,794 m 286.31° 280.46° Concrete 0 ft / 0 m 0 ft / 0 m

UACC

Details ICAO UACC (TSE)
Name Astana INTL
Region Kazakhstan and Kyrgyzstan
Timezone Asia/Almaty (UTC+6.0)
Stats Elevation 1,165 ft / 355 m (AMSL)
Location 51.022180° 71.467062°
Runways 1
Magnetic Variation 9.865° E

METAR

UACC 220430Z 25008MPS 9999 FEW040 BKN110 22/05 Q1011 R22/0///70 NOSIG RMK QFE727/0969

Decode

TAF

TAF UACC 212300Z 2200/2224 25006MPS 9999 SCT030CB BKN100 TX23/2208Z TN08/2223Z TEMPO 2200/2207 27012MPS 4000 SHRA BKN020CB BECMG 2207/2209 35006MPS TEMPO 2207/2214 VRB14MPS 3000 TSRA SQ BKN020CB

Decode

Destination Runways

ID Width Length Bearing (true) Bearing (mag) Surface Threshold Offset Overrun Length
04 148 ft / 45 m 11,467 ft / 3,495 m 44.45° 34.59° Asphalt 0 ft / 0 m 0 ft / 0 m
22 148 ft / 45 m 11,467 ft / 3,495 m 224.48° 214.62° Asphalt 0 ft / 0 m 0 ft / 0 m

Approach Navaids

Runway Type Ident Frequency Range Bearing (true) Bearing (mag) Slope Elevation
04 Localiser IMO 109.50 MHz 18 nm / 33 km 44.29° 34.43° - 1,165 ft / 355 m (AMSL)
04 Glidescope IMO 109.50 MHz 10 nm / 19 km 44.46° 34.60° 3.00° 1,165 ft / 355 m (AMSL)
22 Localiser IAK 111.70 MHz 18 nm / 33 km 224.56° 214.70° - 1,165 ft / 355 m (AMSL)
22 Glidescope IAK 111.70 MHz 10 nm / 19 km 224.46° 214.60° 3.00° 1,165 ft / 355 m (AMSL)

Popular Alternatives